sensor_id;sensor_type;location;lat;lon;timestamp;P1;durP1;ratioP1;P2;durP2;ratioP2
17340;SDS011;8788;49.930;8.660;2023-08-31T00:01:03;2.95;;;2.65;;
17340;SDS011;8788;49.930;8.660;2023-08-31T00:03:30;3.88;;;2.50;;
17340;SDS011;8788;49.930;8.660;2023-08-31T00:05:57;2.60;;;2.40;;
17340;SDS011;8788;49.930;8.660;2023-08-31T00:08:29;3.42;;;2.53;;
17340;SDS011;8788;49.930;8.660;2023-08-31T00:10:56;3.17;;;2.70;;
17340;SDS011;8788;49.930;8.660;2023-08-31T00:13:23;3.55;;;2.30;;
17340;SDS011;8788;49.930;8.660;2023-08-31T00:15:53;3.30;;;2.40;;
17340;SDS011;8788;49.930;8.660;2023-08-31T00:18:22;2.72;;;2.38;;
17340;SDS011;8788;49.930;8.660;2023-08-31T00:20:50;2.83;;;2.53;;
17340;SDS011;8788;49.930;8.660;2023-08-31T00:23:18;2.45;;;2.25;;
17340;SDS011;8788;49.930;8.660;2023-08-31T00:25:47;3.92;;;2.97;;
17340;SDS011;8788;49.930;8.660;2023-08-31T00:28:14;2.75;;;2.50;;
17340;SDS011;8788;49.930;8.660;2023-08-31T00:30:43;3.13;;;2.65;;
17340;SDS011;8788;49.930;8.660;2023-08-31T00:33:12;3.20;;;2.00;;
17340;SDS011;8788;49.930;8.660;2023-08-31T00:35:39;3.95;;;2.95;;
17340;SDS011;8788;49.930;8.660;2023-08-31T00:38:11;4.38;;;2.42;;
17340;SDS011;8788;49.930;8.660;2023-08-31T00:40:39;3.65;;;2.50;;
17340;SDS011;8788;49.930;8.660;2023-08-31T00:43:09;4.22;;;3.30;;
17340;SDS011;8788;49.930;8.660;2023-08-31T00:45:36;7.78;;;2.67;;
17340;SDS011;8788;49.930;8.660;2023-08-31T00:48:06;3.15;;;2.58;;
17340;SDS011;8788;49.930;8.660;2023-08-31T00:50:33;3.95;;;2.60;;
17340;SDS011;8788;49.930;8.660;2023-08-31T00:53:02;3.35;;;2.40;;
17340;SDS011;8788;49.930;8.660;2023-08-31T00:55:31;4.78;;;2.38;;
17340;SDS011;8788;49.930;8.660;2023-08-31T00:57:58;4.93;;;2.38;;
17340;SDS011;8788;49.930;8.660;2023-08-31T01:00:29;7.72;;;2.55;;
17340;SDS011;8788;49.930;8.660;2023-08-31T01:03:05;3.83;;;2.63;;
17340;SDS011;8788;49.930;8.660;2023-08-31T01:05:39;4.18;;;2.78;;
17340;SDS011;8788;49.930;8.660;2023-08-31T01:08:16;3.80;;;2.45;;
17340;SDS011;8788;49.930;8.660;2023-08-31T01:10:55;2.88;;;2.63;;
17340;SDS011;8788;49.930;8.660;2023-08-31T01:13:29;6.78;;;2.83;;
17340;SDS011;8788;49.930;8.660;2023-08-31T01:16:03;4.53;;;2.80;;
17340;SDS011;8788;49.930;8.660;2023-08-31T01:18:33;5.32;;;2.75;;
17340;SDS011;8788;49.930;8.660;2023-08-31T01:21:05;4.32;;;3.05;;
17340;SDS011;8788;49.930;8.660;2023-08-31T01:23:51;3.00;;;2.70;;
17340;SDS011;8788;49.930;8.660;2023-08-31T01:26:19;3.42;;;3.03;;
17340;SDS011;8788;49.930;8.660;2023-08-31T01:28:49;5.78;;;3.40;;
17340;SDS011;8788;49.930;8.660;2023-08-31T01:31:17;3.13;;;2.70;;
17340;SDS011;8788;49.930;8.660;2023-08-31T01:33:46;3.63;;;3.28;;
17340;SDS011;8788;49.930;8.660;2023-08-31T01:36:23;3.90;;;2.90;;
17340;SDS011;8788;49.930;8.660;2023-08-31T01:38:58;3.95;;;3.60;;
17340;SDS011;8788;49.930;8.660;2023-08-31T01:41:33;5.63;;;4.15;;
17340;SDS011;8788;49.930;8.660;2023-08-31T01:44:02;6.03;;;3.97;;
17340;SDS011;8788;49.930;8.660;2023-08-31T01:46:31;5.78;;;3.13;;
17340;SDS011;8788;49.930;8.660;2023-08-31T01:48:58;4.10;;;3.17;;
17340;SDS011;8788;49.930;8.660;2023-08-31T01:51:25;3.78;;;3.40;;
17340;SDS011;8788;49.930;8.660;2023-08-31T01:53:53;6.32;;;4.03;;
17340;SDS011;8788;49.930;8.660;2023-08-31T01:56:21;4.85;;;3.33;;
17340;SDS011;8788;49.930;8.660;2023-08-31T01:58:48;5.20;;;3.13;;
17340;SDS011;8788;49.930;8.660;2023-08-31T02:01:15;4.25;;;3.60;;
17340;SDS011;8788;49.930;8.660;2023-08-31T02:03:43;3.67;;;3.25;;
17340;SDS011;8788;49.930;8.660;2023-08-31T02:06:10;4.22;;;3.50;;
17340;SDS011;8788;49.930;8.660;2023-08-31T02:08:38;5.07;;;3.10;;
17340;SDS011;8788;49.930;8.660;2023-08-31T02:11:05;3.33;;;3.03;;
17340;SDS011;8788;49.930;8.660;2023-08-31T02:13:34;6.18;;;3.28;;
17340;SDS011;8788;49.930;8.660;2023-08-31T02:16:01;4.07;;;3.55;;
17340;SDS011;8788;49.930;8.660;2023-08-31T02:18:28;4.72;;;3.20;;
17340;SDS011;8788;49.930;8.660;2023-08-31T02:20:55;7.38;;;3.88;;
17340;SDS011;8788;49.930;8.660;2023-08-31T02:23:22;6.10;;;3.45;;
17340;SDS011;8788;49.930;8.660;2023-08-31T02:25:49;3.70;;;3.25;;
17340;SDS011;8788;49.930;8.660;2023-08-31T02:28:16;4.20;;;3.38;;
17340;SDS011;8788;49.930;8.660;2023-08-31T02:30:46;3.67;;;3.38;;
17340;SDS011;8788;49.930;8.660;2023-08-31T02:33:13;4.78;;;3.60;;
17340;SDS011;8788;49.930;8.660;2023-08-31T02:35:40;5.18;;;3.53;;
17340;SDS011;8788;49.930;8.660;2023-08-31T02:38:07;4.00;;;3.30;;
17340;SDS011;8788;49.930;8.660;2023-08-31T02:40:34;4.10;;;3.40;;
17340;SDS011;8788;49.930;8.660;2023-08-31T02:43:01;3.45;;;3.20;;
17340;SDS011;8788;49.930;8.660;2023-08-31T02:45:28;3.80;;;3.40;;
17340;SDS011;8788;49.930;8.660;2023-08-31T02:47:57;8.43;;;4.53;;
17340;SDS011;8788;49.930;8.660;2023-08-31T02:50:24;6.32;;;3.80;;
17340;SDS011;8788;49.930;8.660;2023-08-31T02:52:51;6.20;;;3.85;;
17340;SDS011;8788;49.930;8.660;2023-08-31T02:55:18;10.02;;;4.35;;
17340;SDS011;8788;49.930;8.660;2023-08-31T02:57:46;4.10;;;3.65;;
17340;SDS011;8788;49.930;8.660;2023-08-31T03:00:13;4.20;;;3.22;;
17340;SDS011;8788;49.930;8.660;2023-08-31T03:02:41;6.95;;;3.85;;
17340;SDS011;8788;49.930;8.660;2023-08-31T03:05:11;3.65;;;3.25;;
17340;SDS011;8788;49.930;8.660;2023-08-31T03:07:38;4.00;;;3.33;;
17340;SDS011;8788;49.930;8.660;2023-08-31T03:10:06;5.93;;;4.05;;
17340;SDS011;8788;49.930;8.660;2023-08-31T03:12:33;5.63;;;3.63;;
17340;SDS011;8788;49.930;8.660;2023-08-31T03:15:00;7.95;;;3.75;;
17340;SDS011;8788;49.930;8.660;2023-08-31T03:17:27;4.05;;;3.35;;
17340;SDS011;8788;49.930;8.660;2023-08-31T03:19:54;4.72;;;4.05;;
17340;SDS011;8788;49.930;8.660;2023-08-31T03:22:24;4.78;;;4.30;;
17340;SDS011;8788;49.930;8.660;2023-08-31T03:24:51;5.75;;;4.28;;
17340;SDS011;8788;49.930;8.660;2023-08-31T03:27:18;6.82;;;4.40;;
17340;SDS011;8788;49.930;8.660;2023-08-31T03:29:45;6.68;;;3.75;;
17340;SDS011;8788;49.930;8.660;2023-08-31T03:32:12;6.78;;;4.35;;
17340;SDS011;8788;49.930;8.660;2023-08-31T03:34:39;5.25;;;4.68;;
17340;SDS011;8788;49.930;8.660;2023-08-31T03:37:06;6.70;;;4.85;;
17340;SDS011;8788;49.930;8.660;2023-08-31T03:39:35;8.55;;;4.80;;
17340;SDS011;8788;49.930;8.660;2023-08-31T03:42:03;8.85;;;5.13;;
17340;SDS011;8788;49.930;8.660;2023-08-31T03:44:31;10.20;;;5.78;;
17340;SDS011;8788;49.930;8.660;2023-08-31T03:46:58;7.13;;;5.72;;
17340;SDS011;8788;49.930;8.660;2023-08-31T03:49:25;9.77;;;6.28;;
17340;SDS011;8788;49.930;8.660;2023-08-31T03:51:52;6.47;;;5.85;;
17340;SDS011;8788;49.930;8.660;2023-08-31T03:54:19;9.80;;;6.00;;
17340;SDS011;8788;49.930;8.660;2023-08-31T03:56:48;7.85;;;6.78;;
17340;SDS011;8788;49.930;8.660;2023-08-31T03:59:16;10.85;;;7.00;;
17340;SDS011;8788;49.930;8.660;2023-08-31T04:01:43;8.88;;;7.20;;
17340;SDS011;8788;49.930;8.660;2023-08-31T04:04:11;8.00;;;7.20;;
17340;SDS011;8788;49.930;8.660;2023-08-31T04:06:39;9.25;;;7.03;;
17340;SDS011;8788;49.930;8.660;2023-08-31T04:09:06;7.97;;;7.15;;
17340;SDS011;8788;49.930;8.660;2023-08-31T04:11:33;9.38;;;7.05;;
17340;SDS011;8788;49.930;8.660;2023-08-31T04:14:01;9.57;;;7.68;;
17340;SDS011;8788;49.930;8.660;2023-08-31T04:16:28;11.02;;;6.63;;
17340;SDS011;8788;49.930;8.660;2023-08-31T04:18:55;8.18;;;7.32;;
17340;SDS011;8788;49.930;8.660;2023-08-31T04:21:22;7.95;;;6.53;;
17340;SDS011;8788;49.930;8.660;2023-08-31T04:23:49;8.35;;;6.93;;
17340;SDS011;8788;49.930;8.660;2023-08-31T04:26:16;9.50;;;8.05;;
17340;SDS011;8788;49.930;8.660;2023-08-31T04:28:45;9.18;;;6.22;;
17340;SDS011;8788;49.930;8.660;2023-08-31T04:31:14;9.50;;;7.65;;
17340;SDS011;8788;49.930;8.660;2023-08-31T04:33:41;12.32;;;7.40;;
17340;SDS011;8788;49.930;8.660;2023-08-31T04:36:08;8.75;;;6.97;;
17340;SDS011;8788;49.930;8.660;2023-08-31T04:38:35;9.07;;;6.90;;
17340;SDS011;8788;49.930;8.660;2023-08-31T04:41:03;10.13;;;7.10;;
17340;SDS011;8788;49.930;8.660;2023-08-31T04:43:30;9.88;;;7.93;;
17340;SDS011;8788;49.930;8.660;2023-08-31T04:45:57;11.23;;;7.00;;
17340;SDS011;8788;49.930;8.660;2023-08-31T04:48:26;9.85;;;6.85;;
17340;SDS011;8788;49.930;8.660;2023-08-31T04:50:55;9.25;;;7.43;;
17340;SDS011;8788;49.930;8.660;2023-08-31T04:53:23;9.40;;;7.20;;
17340;SDS011;8788;49.930;8.660;2023-08-31T04:55:50;8.68;;;6.43;;
17340;SDS011;8788;49.930;8.660;2023-08-31T04:58:17;8.43;;;6.38;;
17340;SDS011;8788;49.930;8.660;2023-08-31T05:00:44;9.98;;;7.05;;
17340;SDS011;8788;49.930;8.660;2023-08-31T05:03:12;7.70;;;5.72;;
17340;SDS011;8788;49.930;8.660;2023-08-31T05:05:41;8.35;;;5.65;;
17340;SDS011;8788;49.930;8.660;2023-08-31T05:08:09;11.55;;;6.20;;
17340;SDS011;8788;49.930;8.660;2023-08-31T05:10:36;6.65;;;5.80;;
17340;SDS011;8788;49.930;8.660;2023-08-31T05:13:03;7.75;;;6.25;;
17340;SDS011;8788;49.930;8.660;2023-08-31T05:15:30;8.48;;;5.82;;
17340;SDS011;8788;49.930;8.660;2023-08-31T05:17:59;7.95;;;5.18;;
17340;SDS011;8788;49.930;8.660;2023-08-31T05:20:26;7.95;;;5.75;;
17340;SDS011;8788;49.930;8.660;2023-08-31T05:22:54;6.15;;;4.82;;
17340;SDS011;8788;49.930;8.660;2023-08-31T05:25:21;6.95;;;5.18;;
17340;SDS011;8788;49.930;8.660;2023-08-31T05:27:48;7.70;;;4.90;;
17340;SDS011;8788;49.930;8.660;2023-08-31T05:30:15;9.10;;;5.28;;
17340;SDS011;8788;49.930;8.660;2023-08-31T05:32:42;6.15;;;4.53;;
17340;SDS011;8788;49.930;8.660;2023-08-31T05:35:09;7.75;;;5.25;;
17340;SDS011;8788;49.930;8.660;2023-08-31T05:37:36;5.63;;;5.05;;
17340;SDS011;8788;49.930;8.660;2023-08-31T05:40:06;6.78;;;4.68;;
17340;SDS011;8788;49.930;8.660;2023-08-31T05:42:35;7.78;;;4.40;;
17340;SDS011;8788;49.930;8.660;2023-08-31T05:45:03;6.45;;;4.47;;
17340;SDS011;8788;49.930;8.660;2023-08-31T05:47:30;5.18;;;4.32;;
17340;SDS011;8788;49.930;8.660;2023-08-31T05:49:57;6.50;;;4.93;;
17340;SDS011;8788;49.930;8.660;2023-08-31T05:52:24;6.47;;;4.43;;
17340;SDS011;8788;49.930;8.660;2023-08-31T05:54:51;8.15;;;4.90;;
17340;SDS011;8788;49.930;8.660;2023-08-31T05:57:20;4.97;;;3.83;;
17340;SDS011;8788;49.930;8.660;2023-08-31T05:59:47;8.70;;;4.72;;
17340;SDS011;8788;49.930;8.660;2023-08-31T06:02:14;6.38;;;4.35;;
17340;SDS011;8788;49.930;8.660;2023-08-31T06:04:41;10.15;;;4.90;;
17340;SDS011;8788;49.930;8.660;2023-08-31T06:07:08;6.47;;;4.53;;
17340;SDS011;8788;49.930;8.660;2023-08-31T06:09:35;9.25;;;3.85;;
17340;SDS011;8788;49.930;8.660;2023-08-31T06:12:03;5.13;;;3.47;;
17340;SDS011;8788;49.930;8.660;2023-08-31T06:14:33;6.38;;;3.30;;
17340;SDS011;8788;49.930;8.660;2023-08-31T06:17:00;7.75;;;3.67;;
17340;SDS011;8788;49.930;8.660;2023-08-31T06:19:28;5.50;;;3.47;;
17340;SDS011;8788;49.930;8.660;2023-08-31T06:21:55;4.97;;;3.85;;
17340;SDS011;8788;49.930;8.660;2023-08-31T06:24:22;9.20;;;4.05;;
17340;SDS011;8788;49.930;8.660;2023-08-31T06:26:49;6.95;;;3.70;;
17340;SDS011;8788;49.930;8.660;2023-08-31T06:29:17;8.23;;;3.65;;
17340;SDS011;8788;49.930;8.660;2023-08-31T06:31:45;6.05;;;3.00;;
17340;SDS011;8788;49.930;8.660;2023-08-31T06:34:12;3.95;;;3.50;;
17340;SDS011;8788;49.930;8.660;2023-08-31T06:36:40;6.75;;;3.38;;
17340;SDS011;8788;49.930;8.660;2023-08-31T06:39:07;4.65;;;3.35;;
17340;SDS011;8788;49.930;8.660;2023-08-31T06:41:34;6.90;;;3.67;;
17340;SDS011;8788;49.930;8.660;2023-08-31T06:44:01;5.72;;;3.00;;
17340;SDS011;8788;49.930;8.660;2023-08-31T06:46:29;5.28;;;3.28;;
17340;SDS011;8788;49.930;8.660;2023-08-31T06:49:00;5.07;;;3.35;;
17340;SDS011;8788;49.930;8.660;2023-08-31T06:51:28;8.02;;;3.58;;
17340;SDS011;8788;49.930;8.660;2023-08-31T06:53:55;4.00;;;3.05;;
17340;SDS011;8788;49.930;8.660;2023-08-31T06:56:26;7.63;;;3.58;;
17340;SDS011;8788;49.930;8.660;2023-08-31T06:58:53;5.30;;;3.28;;
17340;SDS011;8788;49.930;8.660;2023-08-31T07:01:20;5.80;;;3.20;;
17340;SDS011;8788;49.930;8.660;2023-08-31T07:03:47;5.55;;;3.08;;
17340;SDS011;8788;49.930;8.660;2023-08-31T07:06:16;5.07;;;3.05;;
17340;SDS011;8788;49.930;8.660;2023-08-31T07:08:43;4.70;;;2.90;;
17340;SDS011;8788;49.930;8.660;2023-08-31T07:11:10;3.72;;;2.80;;
17340;SDS011;8788;49.930;8.660;2023-08-31T07:13:37;6.38;;;3.17;;
17340;SDS011;8788;49.930;8.660;2023-08-31T07:16:05;4.80;;;3.15;;
17340;SDS011;8788;49.930;8.660;2023-08-31T07:18:32;6.32;;;3.30;;
17340;SDS011;8788;49.930;8.660;2023-08-31T07:20:59;6.03;;;3.63;;
17340;SDS011;8788;49.930;8.660;2023-08-31T07:23:27;5.90;;;2.78;;
17340;SDS011;8788;49.930;8.660;2023-08-31T07:25:56;4.07;;;3.15;;
17340;SDS011;8788;49.930;8.660;2023-08-31T07:28:25;6.45;;;3.15;;
17340;SDS011;8788;49.930;8.660;2023-08-31T07:31:00;5.60;;;2.60;;
17340;SDS011;8788;49.930;8.660;2023-08-31T07:33:28;4.22;;;2.67;;
17340;SDS011;8788;49.930;8.660;2023-08-31T07:35:56;5.50;;;2.63;;
17340;SDS011;8788;49.930;8.660;2023-08-31T07:38:23;5.75;;;2.28;;
17340;SDS011;8788;49.930;8.660;2023-08-31T07:40:52;4.80;;;2.53;;
17340;SDS011;8788;49.930;8.660;2023-08-31T07:43:19;6.45;;;2.78;;
17340;SDS011;8788;49.930;8.660;2023-08-31T07:45:46;4.45;;;2.33;;
17340;SDS011;8788;49.930;8.660;2023-08-31T07:48:13;4.32;;;2.80;;
17340;SDS011;8788;49.930;8.660;2023-08-31T07:50:40;3.83;;;2.47;;
17340;SDS011;8788;49.930;8.660;2023-08-31T07:53:07;5.72;;;3.35;;
17340;SDS011;8788;49.930;8.660;2023-08-31T07:55:35;9.52;;;2.78;;
17340;SDS011;8788;49.930;8.660;2023-08-31T07:58:03;6.63;;;2.63;;
17340;SDS011;8788;49.930;8.660;2023-08-31T08:00:30;3.08;;;2.15;;
17340;SDS011;8788;49.930;8.660;2023-08-31T08:02:57;3.92;;;2.15;;
17340;SDS011;8788;49.930;8.660;2023-08-31T08:05:24;3.20;;;1.90;;
17340;SDS011;8788;49.930;8.660;2023-08-31T08:07:52;6.47;;;2.15;;
17340;SDS011;8788;49.930;8.660;2023-08-31T08:10:19;5.30;;;2.22;;
17340;SDS011;8788;49.930;8.660;2023-08-31T08:12:46;5.05;;;1.95;;
17340;SDS011;8788;49.930;8.660;2023-08-31T08:15:14;4.53;;;2.53;;
17340;SDS011;8788;49.930;8.660;2023-08-31T08:17:41;3.60;;;1.88;;
17340;SDS011;8788;49.930;8.660;2023-08-31T08:20:09;5.50;;;1.95;;
17340;SDS011;8788;49.930;8.660;2023-08-31T08:22:37;2.78;;;2.00;;
17340;SDS011;8788;49.930;8.660;2023-08-31T08:25:04;3.80;;;2.13;;
17340;SDS011;8788;49.930;8.660;2023-08-31T08:27:32;6.97;;;2.28;;
17340;SDS011;8788;49.930;8.660;2023-08-31T08:30:00;3.13;;;1.83;;
17340;SDS011;8788;49.930;8.660;2023-08-31T08:32:28;4.72;;;2.28;;
17340;SDS011;8788;49.930;8.660;2023-08-31T08:34:55;5.30;;;1.95;;
17340;SDS011;8788;49.930;8.660;2023-08-31T08:37:23;5.25;;;1.63;;
17340;SDS011;8788;49.930;8.660;2023-08-31T08:39:50;3.95;;;1.75;;
17340;SDS011;8788;49.930;8.660;2023-08-31T08:42:18;4.43;;;1.88;;
17340;SDS011;8788;49.930;8.660;2023-08-31T08:44:47;7.68;;;2.25;;
17340;SDS011;8788;49.930;8.660;2023-08-31T08:47:14;4.00;;;1.73;;
17340;SDS011;8788;49.930;8.660;2023-08-31T08:49:44;6.45;;;1.98;;
17340;SDS011;8788;49.930;8.660;2023-08-31T08:52:12;4.97;;;1.85;;
17340;SDS011;8788;49.930;8.660;2023-08-31T08:54:39;4.20;;;1.50;;
17340;SDS011;8788;49.930;8.660;2023-08-31T08:57:06;6.03;;;1.95;;
17340;SDS011;8788;49.930;8.660;2023-08-31T08:59:34;7.63;;;2.13;;
17340;SDS011;8788;49.930;8.660;2023-08-31T09:02:01;4.40;;;1.80;;
17340;SDS011;8788;49.930;8.660;2023-08-31T09:04:29;3.35;;;1.73;;
17340;SDS011;8788;49.930;8.660;2023-08-31T09:06:58;4.50;;;1.73;;
17340;SDS011;8788;49.930;8.660;2023-08-31T09:09:25;3.28;;;1.73;;
17340;SDS011;8788;49.930;8.660;2023-08-31T09:11:52;6.00;;;1.63;;
17340;SDS011;8788;49.930;8.660;2023-08-31T09:14:20;4.07;;;1.67;;
17340;SDS011;8788;49.930;8.660;2023-08-31T09:16:48;2.83;;;1.42;;
17340;SDS011;8788;49.930;8.660;2023-08-31T09:19:19;3.50;;;1.40;;
17340;SDS011;8788;49.930;8.660;2023-08-31T09:21:48;7.07;;;1.38;;
17340;SDS011;8788;49.930;8.660;2023-08-31T09:24:17;2.88;;;1.40;;
17340;SDS011;8788;49.930;8.660;2023-08-31T09:26:44;4.45;;;1.60;;
17340;SDS011;8788;49.930;8.660;2023-08-31T09:29:12;4.03;;;1.40;;
17340;SDS011;8788;49.930;8.660;2023-08-31T09:31:41;3.08;;;1.48;;
17340;SDS011;8788;49.930;8.660;2023-08-31T09:34:09;3.65;;;1.30;;
17340;SDS011;8788;49.930;8.660;2023-08-31T09:36:36;6.05;;;1.52;;
17340;SDS011;8788;49.930;8.660;2023-08-31T09:39:05;4.30;;;1.42;;
17340;SDS011;8788;49.930;8.660;2023-08-31T09:41:35;2.83;;;1.52;;
17340;SDS011;8788;49.930;8.660;2023-08-31T09:44:18;3.28;;;1.38;;
17340;SDS011;8788;49.930;8.660;2023-08-31T09:46:46;4.03;;;1.27;;
17340;SDS011;8788;49.930;8.660;2023-08-31T09:49:14;2.38;;;1.30;;
17340;SDS011;8788;49.930;8.660;2023-08-31T09:51:44;3.95;;;1.55;;
17340;SDS011;8788;49.930;8.660;2023-08-31T09:54:13;6.22;;;1.30;;
17340;SDS011;8788;49.930;8.660;2023-08-31T09:56:43;2.95;;;1.55;;
17340;SDS011;8788;49.930;8.660;2023-08-31T09:59:12;3.28;;;1.40;;
17340;SDS011;8788;49.930;8.660;2023-08-31T10:01:41;2.58;;;1.52;;
17340;SDS011;8788;49.930;8.660;2023-08-31T10:04:09;3.13;;;1.30;;
17340;SDS011;8788;49.930;8.660;2023-08-31T10:06:38;4.93;;;1.58;;
17340;SDS011;8788;49.930;8.660;2023-08-31T10:09:06;5.60;;;1.42;;
17340;SDS011;8788;49.930;8.660;2023-08-31T10:11:35;2.47;;;1.40;;
17340;SDS011;8788;49.930;8.660;2023-08-31T10:14:05;5.07;;;1.65;;
17340;SDS011;8788;49.930;8.660;2023-08-31T10:16:33;3.20;;;1.60;;
17340;SDS011;8788;49.930;8.660;2023-08-31T10:19:01;3.10;;;1.70;;
17340;SDS011;8788;49.930;8.660;2023-08-31T10:21:29;1.48;;;1.20;;
17340;SDS011;8788;49.930;8.660;2023-08-31T10:23:56;2.97;;;1.30;;
17340;SDS011;8788;49.930;8.660;2023-08-31T10:26:24;5.82;;;1.88;;
17340;SDS011;8788;49.930;8.660;2023-08-31T10:28:52;1.60;;;1.20;;
17340;SDS011;8788;49.930;8.660;2023-08-31T10:31:20;5.65;;;1.58;;
17340;SDS011;8788;49.930;8.660;2023-08-31T10:33:54;3.45;;;1.67;;
17340;SDS011;8788;49.930;8.660;2023-08-31T10:36:22;5.90;;;1.50;;
17340;SDS011;8788;49.930;8.660;2023-08-31T10:39:04;3.05;;;1.48;;
17340;SDS011;8788;49.930;8.660;2023-08-31T10:41:33;1.25;;;1.15;;
17340;SDS011;8788;49.930;8.660;2023-08-31T10:44:01;2.28;;;1.33;;
17340;SDS011;8788;49.930;8.660;2023-08-31T10:46:44;2.30;;;1.30;;
17340;SDS011;8788;49.930;8.660;2023-08-31T10:49:12;3.10;;;1.70;;
17340;SDS011;8788;49.930;8.660;2023-08-31T10:51:41;3.65;;;1.33;;
17340;SDS011;8788;49.930;8.660;2023-08-31T10:54:09;2.30;;;1.15;;
17340;SDS011;8788;49.930;8.660;2023-08-31T10:56:42;2.75;;;1.08;;
17340;SDS011;8788;49.930;8.660;2023-08-31T10:59:41;3.42;;;1.27;;
17340;SDS011;8788;49.930;8.660;2023-08-31T11:02:10;2.60;;;1.00;;
17340;SDS011;8788;49.930;8.660;2023-08-31T11:04:55;4.38;;;1.25;;
17340;SDS011;8788;49.930;8.660;2023-08-31T11:07:26;3.22;;;1.20;;
17340;SDS011;8788;49.930;8.660;2023-08-31T11:10:06;7.20;;;1.55;;
17340;SDS011;8788;49.930;8.660;2023-08-31T11:12:44;3.10;;;1.20;;
17340;SDS011;8788;49.930;8.660;2023-08-31T11:15:12;2.47;;;1.17;;
17340;SDS011;8788;49.930;8.660;2023-08-31T11:17:41;2.97;;;1.80;;
17340;SDS011;8788;49.930;8.660;2023-08-31T11:20:12;5.63;;;1.50;;
17340;SDS011;8788;49.930;8.660;2023-08-31T11:22:42;3.22;;;1.40;;
17340;SDS011;8788;49.930;8.660;2023-08-31T11:25:11;3.13;;;1.40;;
17340;SDS011;8788;49.930;8.660;2023-08-31T11:27:38;4.22;;;1.35;;
17340;SDS011;8788;49.930;8.660;2023-08-31T11:30:11;1.70;;;1.08;;
17340;SDS011;8788;49.930;8.660;2023-08-31T11:32:44;2.47;;;1.10;;
17340;SDS011;8788;49.930;8.660;2023-08-31T11:35:13;2.53;;;1.65;;
17340;SDS011;8788;49.930;8.660;2023-08-31T11:37:41;3.22;;;1.20;;
17340;SDS011;8788;49.930;8.660;2023-08-31T11:40:09;1.52;;;1.20;;
17340;SDS011;8788;49.930;8.660;2023-08-31T11:42:36;3.65;;;1.42;;
17340;SDS011;8788;49.930;8.660;2023-08-31T11:45:04;3.80;;;1.58;;
17340;SDS011;8788;49.930;8.660;2023-08-31T11:47:32;3.22;;;1.48;;
17340;SDS011;8788;49.930;8.660;2023-08-31T11:50:01;2.60;;;1.17;;
17340;SDS011;8788;49.930;8.660;2023-08-31T11:52:30;3.80;;;1.45;;
17340;SDS011;8788;49.930;8.660;2023-08-31T11:54:57;2.90;;;1.20;;
17340;SDS011;8788;49.930;8.660;2023-08-31T11:57:25;1.95;;;1.38;;
17340;SDS011;8788;49.930;8.660;2023-08-31T11:59:54;1.40;;;1.08;;
17340;SDS011;8788;49.930;8.660;2023-08-31T12:02:22;3.95;;;1.50;;
17340;SDS011;8788;49.930;8.660;2023-08-31T12:04:49;2.45;;;1.00;;
17340;SDS011;8788;49.930;8.660;2023-08-31T12:07:17;1.77;;;1.05;;
17340;SDS011;8788;49.930;8.660;2023-08-31T12:09:45;2.13;;;1.30;;
17340;SDS011;8788;49.930;8.660;2023-08-31T12:12:13;1.60;;;1.30;;
17340;SDS011;8788;49.930;8.660;2023-08-31T12:14:42;4.60;;;1.45;;
17340;SDS011;8788;49.930;8.660;2023-08-31T12:17:10;2.83;;;1.02;;
17340;SDS011;8788;49.930;8.660;2023-08-31T12:19:37;3.10;;;1.40;;
17340;SDS011;8788;49.930;8.660;2023-08-31T12:22:05;4.38;;;1.50;;
17340;SDS011;8788;49.930;8.660;2023-08-31T12:24:39;3.75;;;1.42;;
17340;SDS011;8788;49.930;8.660;2023-08-31T12:27:06;3.47;;;1.40;;
17340;SDS011;8788;49.930;8.660;2023-08-31T12:29:34;3.25;;;1.42;;
17340;SDS011;8788;49.930;8.660;2023-08-31T12:32:01;3.35;;;1.55;;
17340;SDS011;8788;49.930;8.660;2023-08-31T12:34:28;2.65;;;1.67;;
17340;SDS011;8788;49.930;8.660;2023-08-31T12:36:56;2.58;;;1.48;;
17340;SDS011;8788;49.930;8.660;2023-08-31T12:39:25;4.60;;;1.50;;
17340;SDS011;8788;49.930;8.660;2023-08-31T12:41:54;2.50;;;1.50;;
17340;SDS011;8788;49.930;8.660;2023-08-31T12:44:21;3.63;;;2.15;;
17340;SDS011;8788;49.930;8.660;2023-08-31T12:46:50;4.80;;;1.60;;
17340;SDS011;8788;49.930;8.660;2023-08-31T12:49:17;3.47;;;1.40;;
17340;SDS011;8788;49.930;8.660;2023-08-31T12:51:45;2.45;;;1.45;;
17340;SDS011;8788;49.930;8.660;2023-08-31T12:54:12;3.40;;;1.17;;
17340;SDS011;8788;49.930;8.660;2023-08-31T12:56:40;4.15;;;1.55;;
17340;SDS011;8788;49.930;8.660;2023-08-31T12:59:08;2.17;;;1.38;;
17340;SDS011;8788;49.930;8.660;2023-08-31T13:01:36;5.80;;;1.77;;
17340;SDS011;8788;49.930;8.660;2023-08-31T13:04:03;2.15;;;1.20;;
17340;SDS011;8788;49.930;8.660;2023-08-31T13:06:31;3.47;;;1.33;;
17340;SDS011;8788;49.930;8.660;2023-08-31T13:08:58;2.75;;;1.60;;
17340;SDS011;8788;49.930;8.660;2023-08-31T13:11:25;2.67;;;1.20;;
17340;SDS011;8788;49.930;8.660;2023-08-31T13:13:52;2.55;;;1.33;;
17340;SDS011;8788;49.930;8.660;2023-08-31T13:16:22;1.80;;;1.10;;
17340;SDS011;8788;49.930;8.660;2023-08-31T13:18:49;3.13;;;1.55;;
17340;SDS011;8788;49.930;8.660;2023-08-31T13:21:16;3.60;;;1.48;;
17340;SDS011;8788;49.930;8.660;2023-08-31T13:23:43;4.70;;;1.58;;
17340;SDS011;8788;49.930;8.660;2023-08-31T13:26:10;2.92;;;1.55;;
17340;SDS011;8788;49.930;8.660;2023-08-31T13:28:38;3.65;;;1.83;;
17340;SDS011;8788;49.930;8.660;2023-08-31T13:31:06;4.03;;;1.33;;
17340;SDS011;8788;49.930;8.660;2023-08-31T13:33:34;2.60;;;1.48;;
17340;SDS011;8788;49.930;8.660;2023-08-31T13:36:01;3.92;;;1.55;;
17340;SDS011;8788;49.930;8.660;2023-08-31T13:38:29;3.67;;;1.20;;
17340;SDS011;8788;49.930;8.660;2023-08-31T13:40:56;4.43;;;1.45;;
17340;SDS011;8788;49.930;8.660;2023-08-31T13:43:23;5.50;;;1.55;;
17340;SDS011;8788;49.930;8.660;2023-08-31T13:45:51;2.38;;;1.13;;
17340;SDS011;8788;49.930;8.660;2023-08-31T13:48:18;5.85;;;1.67;;
17340;SDS011;8788;49.930;8.660;2023-08-31T13:50:49;2.70;;;1.42;;
17340;SDS011;8788;49.930;8.660;2023-08-31T13:53:16;4.60;;;1.65;;
17340;SDS011;8788;49.930;8.660;2023-08-31T13:55:43;3.22;;;1.75;;
17340;SDS011;8788;49.930;8.660;2023-08-31T13:58:11;2.95;;;1.55;;
17340;SDS011;8788;49.930;8.660;2023-08-31T14:00:38;4.22;;;1.52;;
17340;SDS011;8788;49.930;8.660;2023-08-31T14:03:07;3.55;;;1.40;;
17340;SDS011;8788;49.930;8.660;2023-08-31T14:05:34;4.10;;;1.90;;
17340;SDS011;8788;49.930;8.660;2023-08-31T14:08:02;3.25;;;1.52;;
17340;SDS011;8788;49.930;8.660;2023-08-31T14:10:30;2.65;;;1.58;;
17340;SDS011;8788;49.930;8.660;2023-08-31T14:12:58;5.70;;;1.77;;
17340;SDS011;8788;49.930;8.660;2023-08-31T14:15:25;2.65;;;1.23;;
17340;SDS011;8788;49.930;8.660;2023-08-31T14:17:52;2.35;;;1.42;;
17340;SDS011;8788;49.930;8.660;2023-08-31T14:20:19;3.83;;;1.98;;
17340;SDS011;8788;49.930;8.660;2023-08-31T14:22:47;4.22;;;1.98;;
17340;SDS011;8788;49.930;8.660;2023-08-31T14:25:17;5.05;;;1.70;;
17340;SDS011;8788;49.930;8.660;2023-08-31T14:27:46;5.15;;;1.83;;
17340;SDS011;8788;49.930;8.660;2023-08-31T14:30:13;3.65;;;1.40;;
17340;SDS011;8788;49.930;8.660;2023-08-31T14:32:40;3.75;;;1.58;;
17340;SDS011;8788;49.930;8.660;2023-08-31T14:35:07;4.03;;;1.60;;
17340;SDS011;8788;49.930;8.660;2023-08-31T14:37:35;3.15;;;1.50;;
17340;SDS011;8788;49.930;8.660;2023-08-31T14:40:02;4.78;;;1.83;;
17340;SDS011;8788;49.930;8.660;2023-08-31T14:42:33;5.20;;;1.52;;
17340;SDS011;8788;49.930;8.660;2023-08-31T14:45:01;3.78;;;1.65;;
17340;SDS011;8788;49.930;8.660;2023-08-31T14:47:28;4.43;;;1.73;;
17340;SDS011;8788;49.930;8.660;2023-08-31T14:49:55;3.50;;;1.60;;
17340;SDS011;8788;49.930;8.660;2023-08-31T14:52:22;2.33;;;1.50;;
17340;SDS011;8788;49.930;8.660;2023-08-31T14:54:50;2.22;;;1.63;;
17340;SDS011;8788;49.930;8.660;2023-08-31T14:57:17;4.55;;;1.60;;
17340;SDS011;8788;49.930;8.660;2023-08-31T14:59:46;5.68;;;1.88;;
17340;SDS011;8788;49.930;8.660;2023-08-31T15:02:13;3.72;;;1.58;;
17340;SDS011;8788;49.930;8.660;2023-08-31T15:04:41;5.18;;;1.80;;
17340;SDS011;8788;49.930;8.660;2023-08-31T15:07:09;3.22;;;1.48;;